sensor_id;sensor_type;location;lat;lon;timestamp;P1;durP1;ratioP1;P2;durP2;ratioP2
70814;SDS011;58428;49.478;10.986;2023-05-16T00:00:22;10.35;;;6.85;;
70814;SDS011;58428;49.478;10.986;2023-05-16T00:02:49;10.13;;;6.40;;
70814;SDS011;58428;49.478;10.986;2023-05-16T00:05:15;9.93;;;6.57;;
70814;SDS011;58428;49.478;10.986;2023-05-16T00:07:42;10.10;;;6.45;;
70814;SDS011;58428;49.478;10.986;2023-05-16T00:10:10;11.85;;;7.00;;
70814;SDS011;58428;49.478;10.986;2023-05-16T00:12:37;10.98;;;6.38;;
70814;SDS011;58428;49.478;10.986;2023-05-16T00:15:05;9.32;;;6.40;;
70814;SDS011;58428;49.478;10.986;2023-05-16T00:17:32;9.63;;;6.32;;
70814;SDS011;58428;49.478;10.986;2023-05-16T00:19:59;9.77;;;6.63;;
70814;SDS011;58428;49.478;10.986;2023-05-16T00:22:35;9.77;;;6.72;;
70814;SDS011;58428;49.478;10.986;2023-05-16T00:25:03;9.50;;;6.65;;
70814;SDS011;58428;49.478;10.986;2023-05-16T00:27:35;9.82;;;6.68;;
70814;SDS011;58428;49.478;10.986;2023-05-16T00:30:01;9.48;;;6.15;;
70814;SDS011;58428;49.478;10.986;2023-05-16T00:32:27;9.10;;;5.80;;
70814;SDS011;58428;49.478;10.986;2023-05-16T00:34:53;10.07;;;6.50;;
70814;SDS011;58428;49.478;10.986;2023-05-16T00:37:19;9.82;;;6.32;;
70814;SDS011;58428;49.478;10.986;2023-05-16T00:39:44;9.77;;;6.63;;
70814;SDS011;58428;49.478;10.986;2023-05-16T00:42:10;8.73;;;6.28;;
70814;SDS011;58428;49.478;10.986;2023-05-16T00:44:36;10.40;;;7.05;;
70814;SDS011;58428;49.478;10.986;2023-05-16T00:47:03;9.07;;;6.80;;
70814;SDS011;58428;49.478;10.986;2023-05-16T00:49:30;9.07;;;6.57;;
70814;SDS011;58428;49.478;10.986;2023-05-16T00:51:56;9.93;;;7.22;;
70814;SDS011;58428;49.478;10.986;2023-05-16T00:54:22;10.88;;;7.90;;
70814;SDS011;58428;49.478;10.986;2023-05-16T00:56:51;10.63;;;7.07;;
70814;SDS011;58428;49.478;10.986;2023-05-16T01:01:44;10.02;;;6.75;;
70814;SDS011;58428;49.478;10.986;2023-05-16T01:04:11;11.10;;;7.38;;
70814;SDS011;58428;49.478;10.986;2023-05-16T01:06:36;10.65;;;7.63;;
70814;SDS011;58428;49.478;10.986;2023-05-16T01:09:02;11.23;;;7.70;;
70814;SDS011;58428;49.478;10.986;2023-05-16T01:14:16;12.70;;;7.40;;
70814;SDS011;58428;49.478;10.986;2023-05-16T01:16:53;10.68;;;7.28;;
70814;SDS011;58428;49.478;10.986;2023-05-16T01:25:09;12.65;;;8.07;;
70814;SDS011;58428;49.478;10.986;2023-05-16T01:27:36;10.75;;;7.15;;
70814;SDS011;58428;49.478;10.986;2023-05-16T01:30:21;11.75;;;8.10;;
70814;SDS011;58428;49.478;10.986;2023-05-16T01:32:46;12.02;;;8.52;;
70814;SDS011;58428;49.478;10.986;2023-05-16T01:35:12;12.15;;;8.27;;
70814;SDS011;58428;49.478;10.986;2023-05-16T01:40:37;11.98;;;7.95;;
70814;SDS011;58428;49.478;10.986;2023-05-16T01:43:20;11.43;;;8.35;;
70814;SDS011;58428;49.478;10.986;2023-05-16T01:45:57;10.95;;;7.55;;
70814;SDS011;58428;49.478;10.986;2023-05-16T01:48:32;11.45;;;8.27;;
70814;SDS011;58428;49.478;10.986;2023-05-16T01:51:04;11.27;;;7.80;;
70814;SDS011;58428;49.478;10.986;2023-05-16T01:53:35;11.48;;;7.80;;
70814;SDS011;58428;49.478;10.986;2023-05-16T01:56:03;13.40;;;8.35;;
70814;SDS011;58428;49.478;10.986;2023-05-16T01:58:33;11.98;;;8.05;;
70814;SDS011;58428;49.478;10.986;2023-05-16T02:01:01;11.13;;;7.95;;
70814;SDS011;58428;49.478;10.986;2023-05-16T02:03:29;11.77;;;7.78;;
70814;SDS011;58428;49.478;10.986;2023-05-16T02:05:55;11.75;;;8.68;;
70814;SDS011;58428;49.478;10.986;2023-05-16T02:10:47;11.20;;;7.47;;
70814;SDS011;58428;49.478;10.986;2023-05-16T02:13:13;10.48;;;7.80;;
70814;SDS011;58428;49.478;10.986;2023-05-16T02:15:38;12.68;;;8.25;;
70814;SDS011;58428;49.478;10.986;2023-05-16T02:18:03;13.43;;;8.38;;
70814;SDS011;58428;49.478;10.986;2023-05-16T02:20:29;11.90;;;8.18;;
70814;SDS011;58428;49.478;10.986;2023-05-16T02:22:55;11.95;;;8.13;;
70814;SDS011;58428;49.478;10.986;2023-05-16T02:25:20;11.15;;;7.88;;
70814;SDS011;58428;49.478;10.986;2023-05-16T02:27:46;12.73;;;8.35;;
70814;SDS011;58428;49.478;10.986;2023-05-16T02:30:12;11.57;;;8.02;;
70814;SDS011;58428;49.478;10.986;2023-05-16T02:32:39;11.68;;;8.07;;
70814;SDS011;58428;49.478;10.986;2023-05-16T02:35:05;12.30;;;8.48;;
70814;SDS011;58428;49.478;10.986;2023-05-16T02:37:32;13.23;;;8.48;;
70814;SDS011;58428;49.478;10.986;2023-05-16T02:39:57;12.90;;;8.43;;
70814;SDS011;58428;49.478;10.986;2023-05-16T02:42:25;12.38;;;8.65;;
70814;SDS011;58428;49.478;10.986;2023-05-16T02:44:54;12.93;;;8.60;;
70814;SDS011;58428;49.478;10.986;2023-05-16T02:47:20;12.80;;;8.85;;
70814;SDS011;58428;49.478;10.986;2023-05-16T02:49:46;13.02;;;9.18;;
70814;SDS011;58428;49.478;10.986;2023-05-16T02:52:11;14.05;;;9.23;;
70814;SDS011;58428;49.478;10.986;2023-05-16T02:54:37;12.38;;;8.65;;
70814;SDS011;58428;49.478;10.986;2023-05-16T02:57:03;14.13;;;9.50;;
70814;SDS011;58428;49.478;10.986;2023-05-16T02:59:28;13.82;;;9.60;;
70814;SDS011;58428;49.478;10.986;2023-05-16T03:01:56;14.38;;;9.93;;
70814;SDS011;58428;49.478;10.986;2023-05-16T03:04:22;13.65;;;9.50;;
70814;SDS011;58428;49.478;10.986;2023-05-16T03:06:48;15.15;;;9.77;;
70814;SDS011;58428;49.478;10.986;2023-05-16T03:09:15;14.98;;;9.85;;
70814;SDS011;58428;49.478;10.986;2023-05-16T03:11:41;15.07;;;9.82;;
70814;SDS011;58428;49.478;10.986;2023-05-16T03:14:10;14.10;;;9.80;;
70814;SDS011;58428;49.478;10.986;2023-05-16T03:16:36;16.65;;;9.98;;
70814;SDS011;58428;49.478;10.986;2023-05-16T03:19:02;14.60;;;10.13;;
70814;SDS011;58428;49.478;10.986;2023-05-16T03:21:31;17.15;;;11.00;;
70814;SDS011;58428;49.478;10.986;2023-05-16T03:23:56;14.77;;;9.95;;
70814;SDS011;58428;49.478;10.986;2023-05-16T03:26:22;15.48;;;10.35;;
70814;SDS011;58428;49.478;10.986;2023-05-16T03:28:48;16.83;;;9.98;;
70814;SDS011;58428;49.478;10.986;2023-05-16T03:31:15;18.05;;;10.73;;
70814;SDS011;58428;49.478;10.986;2023-05-16T03:33:41;17.52;;;10.77;;
70814;SDS011;58428;49.478;10.986;2023-05-16T03:36:06;15.02;;;10.10;;
70814;SDS011;58428;49.478;10.986;2023-05-16T03:38:32;16.23;;;11.00;;
70814;SDS011;58428;49.478;10.986;2023-05-16T03:40:58;16.50;;;10.65;;
70814;SDS011;58428;49.478;10.986;2023-05-16T03:43:24;15.77;;;9.75;;
70814;SDS011;58428;49.478;10.986;2023-05-16T03:45:50;14.38;;;9.88;;
70814;SDS011;58428;49.478;10.986;2023-05-16T03:48:15;15.55;;;10.70;;
70814;SDS011;58428;49.478;10.986;2023-05-16T03:50:41;13.95;;;9.57;;
70814;SDS011;58428;49.478;10.986;2023-05-16T03:53:06;12.95;;;9.18;;
70814;SDS011;58428;49.478;10.986;2023-05-16T03:55:32;14.27;;;9.07;;
70814;SDS011;58428;49.478;10.986;2023-05-16T04:00:24;12.05;;;8.82;;
70814;SDS011;58428;49.478;10.986;2023-05-16T04:02:50;12.82;;;8.98;;
70814;SDS011;58428;49.478;10.986;2023-05-16T04:05:16;13.65;;;9.52;;
70814;SDS011;58428;49.478;10.986;2023-05-16T04:07:41;13.00;;;8.57;;
70814;SDS011;58428;49.478;10.986;2023-05-16T04:10:07;13.68;;;9.43;;
70814;SDS011;58428;49.478;10.986;2023-05-16T04:14:58;13.40;;;8.73;;
70814;SDS011;58428;49.478;10.986;2023-05-16T04:17:23;13.25;;;8.75;;
70814;SDS011;58428;49.478;10.986;2023-05-16T04:19:49;12.98;;;8.80;;
70814;SDS011;58428;49.478;10.986;2023-05-16T04:22:14;14.18;;;9.20;;
70814;SDS011;58428;49.478;10.986;2023-05-16T04:24:40;13.85;;;9.50;;
70814;SDS011;58428;49.478;10.986;2023-05-16T04:27:07;14.98;;;9.70;;
70814;SDS011;58428;49.478;10.986;2023-05-16T04:29:33;15.15;;;9.60;;
70814;SDS011;58428;49.478;10.986;2023-05-16T04:34:24;13.00;;;8.73;;
70814;SDS011;58428;49.478;10.986;2023-05-16T04:36:54;13.00;;;9.23;;
70814;SDS011;58428;49.478;10.986;2023-05-16T04:39:20;16.30;;;10.07;;
70814;SDS011;58428;49.478;10.986;2023-05-16T04:41:46;13.98;;;9.57;;
70814;SDS011;58428;49.478;10.986;2023-05-16T04:44:11;13.32;;;9.70;;
70814;SDS011;58428;49.478;10.986;2023-05-16T04:46:38;14.48;;;10.10;;
70814;SDS011;58428;49.478;10.986;2023-05-16T04:49:05;13.45;;;9.50;;
70814;SDS011;58428;49.478;10.986;2023-05-16T04:51:30;14.18;;;10.35;;
70814;SDS011;58428;49.478;10.986;2023-05-16T04:53:57;12.90;;;9.30;;
70814;SDS011;58428;49.478;10.986;2023-05-16T04:56:23;15.05;;;10.00;;
70814;SDS011;58428;49.478;10.986;2023-05-16T04:58:50;14.82;;;10.63;;
70814;SDS011;58428;49.478;10.986;2023-05-16T05:01:15;16.50;;;10.63;;
70814;SDS011;58428;49.478;10.986;2023-05-16T05:03:41;15.30;;;10.32;;
70814;SDS011;58428;49.478;10.986;2023-05-16T05:06:07;15.30;;;9.70;;
70814;SDS011;58428;49.478;10.986;2023-05-16T05:08:32;17.00;;;10.68;;
70814;SDS011;58428;49.478;10.986;2023-05-16T05:10:57;13.65;;;9.70;;
70814;SDS011;58428;49.478;10.986;2023-05-16T05:13:26;15.57;;;10.23;;
70814;SDS011;58428;49.478;10.986;2023-05-16T05:15:52;13.20;;;9.60;;
70814;SDS011;58428;49.478;10.986;2023-05-16T05:18:17;13.73;;;10.02;;
70814;SDS011;58428;49.478;10.986;2023-05-16T05:20:43;13.13;;;9.68;;
70814;SDS011;58428;49.478;10.986;2023-05-16T05:23:09;13.48;;;9.50;;
70814;SDS011;58428;49.478;10.986;2023-05-16T05:25:37;11.90;;;9.00;;
70814;SDS011;58428;49.478;10.986;2023-05-16T05:28:03;14.65;;;9.73;;
70814;SDS011;58428;49.478;10.986;2023-05-16T05:32:55;13.13;;;9.13;;
70814;SDS011;58428;49.478;10.986;2023-05-16T05:35:20;13.35;;;9.77;;
70814;SDS011;58428;49.478;10.986;2023-05-16T05:37:46;16.10;;;9.90;;
70814;SDS011;58428;49.478;10.986;2023-05-16T05:40:11;13.27;;;9.85;;
70814;SDS011;58428;49.478;10.986;2023-05-16T05:42:39;13.07;;;9.32;;
70814;SDS011;58428;49.478;10.986;2023-05-16T05:45:04;13.77;;;9.57;;
70814;SDS011;58428;49.478;10.986;2023-05-16T05:47:31;12.55;;;8.93;;
70814;SDS011;58428;49.478;10.986;2023-05-16T05:49:58;13.18;;;9.00;;
70814;SDS011;58428;49.478;10.986;2023-05-16T05:52:24;12.43;;;9.43;;
70814;SDS011;58428;49.478;10.986;2023-05-16T05:54:50;12.50;;;9.20;;
70814;SDS011;58428;49.478;10.986;2023-05-16T05:57:15;13.40;;;8.90;;
70814;SDS011;58428;49.478;10.986;2023-05-16T05:59:40;14.80;;;9.68;;
70814;SDS011;58428;49.478;10.986;2023-05-16T06:02:07;14.15;;;9.38;;
70814;SDS011;58428;49.478;10.986;2023-05-16T06:04:33;13.57;;;9.60;;
70814;SDS011;58428;49.478;10.986;2023-05-16T06:06:58;12.85;;;8.85;;
70814;SDS011;58428;49.478;10.986;2023-05-16T06:09:23;10.82;;;8.60;;
70814;SDS011;58428;49.478;10.986;2023-05-16T06:11:49;12.50;;;9.27;;
70814;SDS011;58428;49.478;10.986;2023-05-16T06:14:14;11.77;;;8.90;;
70814;SDS011;58428;49.478;10.986;2023-05-16T06:16:41;12.82;;;9.38;;
70814;SDS011;58428;49.478;10.986;2023-05-16T06:19:07;14.85;;;8.93;;
70814;SDS011;58428;49.478;10.986;2023-05-16T06:21:32;14.70;;;9.90;;
70814;SDS011;58428;49.478;10.986;2023-05-16T06:23:58;13.60;;;9.52;;
70814;SDS011;58428;49.478;10.986;2023-05-16T06:26:24;14.63;;;9.43;;
70814;SDS011;58428;49.478;10.986;2023-05-16T06:28:50;13.70;;;9.63;;
70814;SDS011;58428;49.478;10.986;2023-05-16T06:31:15;12.25;;;9.00;;
70814;SDS011;58428;49.478;10.986;2023-05-16T06:33:41;12.98;;;9.10;;
70814;SDS011;58428;49.478;10.986;2023-05-16T06:36:07;11.40;;;8.90;;
70814;SDS011;58428;49.478;10.986;2023-05-16T06:38:32;12.55;;;8.32;;
70814;SDS011;58428;49.478;10.986;2023-05-16T06:40:57;12.25;;;8.48;;
70814;SDS011;58428;49.478;10.986;2023-05-16T06:43:24;11.32;;;8.23;;
70814;SDS011;58428;49.478;10.986;2023-05-16T06:45:49;11.38;;;8.20;;
70814;SDS011;58428;49.478;10.986;2023-05-16T06:48:16;11.85;;;8.30;;
70814;SDS011;58428;49.478;10.986;2023-05-16T06:50:46;10.63;;;7.95;;
70814;SDS011;58428;49.478;10.986;2023-05-16T06:53:15;11.70;;;8.82;;
70814;SDS011;58428;49.478;10.986;2023-05-16T06:55:41;11.70;;;8.85;;
70814;SDS011;58428;49.478;10.986;2023-05-16T06:58:07;12.13;;;8.85;;
70814;SDS011;58428;49.478;10.986;2023-05-16T07:00:33;12.10;;;8.93;;
70814;SDS011;58428;49.478;10.986;2023-05-16T07:05:23;10.83;;;7.67;;
70814;SDS011;58428;49.478;10.986;2023-05-16T07:10:14;11.38;;;8.07;;
70814;SDS011;58428;49.478;10.986;2023-05-16T07:15:06;12.63;;;8.52;;
70814;SDS011;58428;49.478;10.986;2023-05-16T07:17:32;11.63;;;7.88;;
70814;SDS011;58428;49.478;10.986;2023-05-16T07:22:24;12.45;;;8.45;;
70814;SDS011;58428;49.478;10.986;2023-05-16T07:24:50;10.95;;;7.88;;
70814;SDS011;58428;49.478;10.986;2023-05-16T07:27:18;11.85;;;7.90;;
70814;SDS011;58428;49.478;10.986;2023-05-16T07:29:43;12.38;;;8.70;;
70814;SDS011;58428;49.478;10.986;2023-05-16T07:34:34;11.57;;;8.25;;
70814;SDS011;58428;49.478;10.986;2023-05-16T07:36:59;11.70;;;7.95;;
70814;SDS011;58428;49.478;10.986;2023-05-16T07:41:50;11.23;;;7.53;;
70814;SDS011;58428;49.478;10.986;2023-05-16T07:46:42;11.70;;;8.30;;
70814;SDS011;58428;49.478;10.986;2023-05-16T07:49:08;11.95;;;8.25;;
70814;SDS011;58428;49.478;10.986;2023-05-16T07:54:00;10.52;;;7.55;;
70814;SDS011;58428;49.478;10.986;2023-05-16T07:58:52;12.30;;;8.05;;
70814;SDS011;58428;49.478;10.986;2023-05-16T08:03:43;12.73;;;7.53;;
70814;SDS011;58428;49.478;10.986;2023-05-16T08:08:34;10.32;;;7.70;;
70814;SDS011;58428;49.478;10.986;2023-05-16T08:13:25;12.40;;;8.23;;
70814;SDS011;58428;49.478;10.986;2023-05-16T08:18:15;14.13;;;8.00;;
70814;SDS011;58428;49.478;10.986;2023-05-16T08:20:41;10.63;;;7.88;;
70814;SDS011;58428;49.478;10.986;2023-05-16T08:23:08;11.63;;;8.57;;
70814;SDS011;58428;49.478;10.986;2023-05-16T08:25:34;11.75;;;8.70;;
70814;SDS011;58428;49.478;10.986;2023-05-16T08:28:00;10.23;;;7.88;;
70814;SDS011;58428;49.478;10.986;2023-05-16T08:30:28;12.60;;;8.98;;
70814;SDS011;58428;49.478;10.986;2023-05-16T08:35:19;10.73;;;7.22;;
70814;SDS011;58428;49.478;10.986;2023-05-16T08:37:45;11.85;;;8.05;;
70814;SDS011;58428;49.478;10.986;2023-05-16T08:40:11;11.27;;;8.50;;
70814;SDS011;58428;49.478;10.986;2023-05-16T08:42:38;11.48;;;8.23;;
70814;SDS011;58428;49.478;10.986;2023-05-16T08:45:04;12.27;;;8.73;;
70814;SDS011;58428;49.478;10.986;2023-05-16T08:47:32;13.07;;;8.65;;
70814;SDS011;58428;49.478;10.986;2023-05-16T08:50:01;11.20;;;8.70;;
70814;SDS011;58428;49.478;10.986;2023-05-16T08:52:28;9.73;;;7.63;;
70814;SDS011;58428;49.478;10.986;2023-05-16T08:54:58;11.10;;;7.75;;
70814;SDS011;58428;49.478;10.986;2023-05-16T08:57:29;10.35;;;8.07;;
70814;SDS011;58428;49.478;10.986;2023-05-16T08:59:56;12.50;;;8.38;;
70814;SDS011;58428;49.478;10.986;2023-05-16T09:02:22;11.98;;;7.90;;
70814;SDS011;58428;49.478;10.986;2023-05-16T09:04:48;11.50;;;7.60;;
70814;SDS011;58428;49.478;10.986;2023-05-16T09:07:14;14.20;;;9.18;;
70814;SDS011;58428;49.478;10.986;2023-05-16T09:09:40;12.38;;;8.18;;
70814;SDS011;58428;49.478;10.986;2023-05-16T09:12:07;12.18;;;8.18;;
70814;SDS011;58428;49.478;10.986;2023-05-16T09:14:33;10.60;;;8.65;;
70814;SDS011;58428;49.478;10.986;2023-05-16T09:17:03;14.15;;;9.10;;
70814;SDS011;58428;49.478;10.986;2023-05-16T09:19:47;11.40;;;8.50;;
70814;SDS011;58428;49.478;10.986;2023-05-16T09:22:18;11.02;;;8.30;;
70814;SDS011;58428;49.478;10.986;2023-05-16T09:24:44;11.57;;;8.68;;
70814;SDS011;58428;49.478;10.986;2023-05-16T09:27:10;11.30;;;8.25;;
70814;SDS011;58428;49.478;10.986;2023-05-16T09:29:39;10.13;;;8.25;;
70814;SDS011;58428;49.478;10.986;2023-05-16T09:32:11;11.55;;;7.75;;
70814;SDS011;58428;49.478;10.986;2023-05-16T09:34:45;9.93;;;8.02;;
70814;SDS011;58428;49.478;10.986;2023-05-16T09:37:16;10.35;;;8.10;;
70814;SDS011;58428;49.478;10.986;2023-05-16T09:39:45;12.30;;;8.73;;
70814;SDS011;58428;49.478;10.986;2023-05-16T09:42:12;11.25;;;8.90;;
70814;SDS011;58428;49.478;10.986;2023-05-16T09:44:39;10.55;;;8.15;;
70814;SDS011;58428;49.478;10.986;2023-05-16T09:47:05;11.73;;;8.13;;
70814;SDS011;58428;49.478;10.986;2023-05-16T09:49:31;11.93;;;9.00;;
70814;SDS011;58428;49.478;10.986;2023-05-16T09:52:00;11.20;;;8.77;;
70814;SDS011;58428;49.478;10.986;2023-05-16T09:54:30;12.40;;;8.63;;
70814;SDS011;58428;49.478;10.986;2023-05-16T09:57:00;11.98;;;8.25;;
70814;SDS011;58428;49.478;10.986;2023-05-16T09:59:29;11.27;;;8.23;;
70814;SDS011;58428;49.478;10.986;2023-05-16T10:01:58;12.27;;;7.97;;
70814;SDS011;58428;49.478;10.986;2023-05-16T10:04:25;11.77;;;7.72;;
70814;SDS011;58428;49.478;10.986;2023-05-16T10:06:51;12.40;;;8.40;;
70814;SDS011;58428;49.478;10.986;2023-05-16T10:09:21;13.60;;;8.25;;
70814;SDS011;58428;49.478;10.986;2023-05-16T10:11:47;10.77;;;7.60;;
70814;SDS011;58428;49.478;10.986;2023-05-16T10:14:16;11.63;;;8.50;;
70814;SDS011;58428;49.478;10.986;2023-05-16T10:16:43;10.48;;;7.50;;
70814;SDS011;58428;49.478;10.986;2023-05-16T10:19:11;12.27;;;7.45;;
70814;SDS011;58428;49.478;10.986;2023-05-16T10:21:38;11.63;;;7.85;;
70814;SDS011;58428;49.478;10.986;2023-05-16T10:24:07;10.32;;;7.57;;
70814;SDS011;58428;49.478;10.986;2023-05-16T10:26:35;12.57;;;7.18;;
70814;SDS011;58428;49.478;10.986;2023-05-16T10:29:01;10.50;;;7.25;;
70814;SDS011;58428;49.478;10.986;2023-05-16T10:31:28;10.50;;;7.15;;
70814;SDS011;58428;49.478;10.986;2023-05-16T10:33:55;9.55;;;6.63;;
70814;SDS011;58428;49.478;10.986;2023-05-16T10:36:21;8.85;;;6.35;;
70814;SDS011;58428;49.478;10.986;2023-05-16T10:38:48;10.45;;;6.85;;
70814;SDS011;58428;49.478;10.986;2023-05-16T10:41:15;9.25;;;6.70;;
70814;SDS011;58428;49.478;10.986;2023-05-16T10:43:43;8.27;;;6.53;;
70814;SDS011;58428;49.478;10.986;2023-05-16T10:46:20;11.68;;;6.65;;
70814;SDS011;58428;49.478;10.986;2023-05-16T10:48:49;10.63;;;7.07;;
70814;SDS011;58428;49.478;10.986;2023-05-16T10:53:46;8.52;;;6.40;;
70814;SDS011;58428;49.478;10.986;2023-05-16T10:56:15;7.20;;;5.40;;
70814;SDS011;58428;49.478;10.986;2023-05-16T10:58:47;8.68;;;5.53;;
70814;SDS011;58428;49.478;10.986;2023-05-16T11:01:23;7.45;;;5.70;;
70814;SDS011;58428;49.478;10.986;2023-05-16T11:06:21;6.88;;;5.00;;
70814;SDS011;58428;49.478;10.986;2023-05-16T11:09:03;8.48;;;5.57;;
70814;SDS011;58428;49.478;10.986;2023-05-16T11:14:21;8.73;;;5.30;;
70814;SDS011;58428;49.478;10.986;2023-05-16T11:16:53;7.75;;;5.13;;
70814;SDS011;58428;49.478;10.986;2023-05-16T11:22:09;9.60;;;5.22;;
70814;SDS011;58428;49.478;10.986;2023-05-16T11:27:19;7.65;;;4.88;;
70814;SDS011;58428;49.478;10.986;2023-05-16T11:30:14;7.70;;;4.82;;
70814;SDS011;58428;49.478;10.986;2023-05-16T11:32:43;6.75;;;4.43;;
70814;SDS011;58428;49.478;10.986;2023-05-16T11:35:10;7.53;;;5.07;;
70814;SDS011;58428;49.478;10.986;2023-05-16T11:37:39;9.20;;;4.53;;
70814;SDS011;58428;49.478;10.986;2023-05-16T11:40:05;7.28;;;4.63;;
70814;SDS011;58428;49.478;10.986;2023-05-16T11:42:36;9.40;;;5.00;;
70814;SDS011;58428;49.478;10.986;2023-05-16T11:47:36;7.45;;;4.57;;
70814;SDS011;58428;49.478;10.986;2023-05-16T11:52:39;8.05;;;4.70;;
70814;SDS011;58428;49.478;10.986;2023-05-16T11:55:08;6.10;;;4.50;;
70814;SDS011;58428;49.478;10.986;2023-05-16T11:57:37;8.52;;;4.90;;
70814;SDS011;58428;49.478;10.986;2023-05-16T12:00:17;7.65;;;4.93;;
70814;SDS011;58428;49.478;10.986;2023-05-16T12:02:44;6.47;;;4.50;;
70814;SDS011;58428;49.478;10.986;2023-05-16T12:05:14;6.65;;;4.50;;
70814;SDS011;58428;49.478;10.986;2023-05-16T12:07:44;8.05;;;4.57;;
70814;SDS011;58428;49.478;10.986;2023-05-16T12:10:13;8.00;;;4.80;;
70814;SDS011;58428;49.478;10.986;2023-05-16T12:12:41;6.25;;;4.35;;
70814;SDS011;58428;49.478;10.986;2023-05-16T12:15:10;6.93;;;4.50;;
70814;SDS011;58428;49.478;10.986;2023-05-16T12:17:36;7.45;;;4.43;;
70814;SDS011;58428;49.478;10.986;2023-05-16T12:20:05;7.75;;;4.70;;
70814;SDS011;58428;49.478;10.986;2023-05-16T12:22:47;6.80;;;4.53;;
70814;SDS011;58428;49.478;10.986;2023-05-16T12:25:20;7.30;;;4.88;;
70814;SDS011;58428;49.478;10.986;2023-05-16T12:27:53;7.82;;;4.88;;
70814;SDS011;58428;49.478;10.986;2023-05-16T12:30:25;7.55;;;5.03;;
70814;SDS011;58428;49.478;10.986;2023-05-16T12:32:58;8.57;;;4.97;;
70814;SDS011;58428;49.478;10.986;2023-05-16T12:35:24;7.55;;;4.88;;
70814;SDS011;58428;49.478;10.986;2023-05-16T12:37:54;7.80;;;4.57;;
70814;SDS011;58428;49.478;10.986;2023-05-16T12:40:20;8.32;;;5.25;;
70814;SDS011;58428;49.478;10.986;2023-05-16T12:42:50;7.15;;;4.85;;
70814;SDS011;58428;49.478;10.986;2023-05-16T12:45:17;11.18;;;6.05;;
70814;SDS011;58428;49.478;10.986;2023-05-16T12:47:42;7.28;;;4.78;;
70814;SDS011;58428;49.478;10.986;2023-05-16T12:50:15;8.65;;;5.15;;
70814;SDS011;58428;49.478;10.986;2023-05-16T12:53:03;7.03;;;4.60;;
70814;SDS011;58428;49.478;10.986;2023-05-16T12:55:29;6.97;;;4.70;;
70814;SDS011;58428;49.478;10.986;2023-05-16T12:57:55;7.28;;;4.57;;
70814;SDS011;58428;49.478;10.986;2023-05-16T13:00:25;6.63;;;4.30;;
70814;SDS011;58428;49.478;10.986;2023-05-16T13:02:50;8.82;;;4.53;;
70814;SDS011;58428;49.478;10.986;2023-05-16T13:05:16;10.95;;;4.22;;
70814;SDS011;58428;49.478;10.986;2023-05-16T13:07:41;7.07;;;4.55;;
70814;SDS011;58428;49.478;10.986;2023-05-16T13:10:08;7.32;;;4.30;;
70814;SDS011;58428;49.478;10.986;2023-05-16T13:12:36;9.00;;;4.43;;
70814;SDS011;58428;49.478;10.986;2023-05-16T13:15:03;7.97;;;4.70;;
70814;SDS011;58428;49.478;10.986;2023-05-16T13:17:31;7.30;;;4.53;;
70814;SDS011;58428;49.478;10.986;2023-05-16T13:20:01;7.05;;;4.47;;
70814;SDS011;58428;49.478;10.986;2023-05-16T13:22:37;7.85;;;4.25;;
70814;SDS011;58428;49.478;10.986;2023-05-16T13:25:03;7.32;;;4.35;;
70814;SDS011;58428;49.478;10.986;2023-05-16T13:27:30;7.28;;;3.67;;
70814;SDS011;58428;49.478;10.986;2023-05-16T13:29:57;7.35;;;4.47;;
70814;SDS011;58428;49.478;10.986;2023-05-16T13:32:23;6.18;;;3.75;;
70814;SDS011;58428;49.478;10.986;2023-05-16T13:34:50;6.45;;;4.45;;
70814;SDS011;58428;49.478;10.986;2023-05-16T13:37:17;6.60;;;3.78;;
70814;SDS011;58428;49.478;10.986;2023-05-16T13:39:43;6.30;;;3.78;;
70814;SDS011;58428;49.478;10.986;2023-05-16T13:42:10;7.03;;;3.83;;
70814;SDS011;58428;49.478;10.986;2023-05-16T13:44:35;7.43;;;3.60;;
70814;SDS011;58428;49.478;10.986;2023-05-16T13:47:04;5.90;;;3.75;;
70814;SDS011;58428;49.478;10.986;2023-05-16T13:49:29;5.60;;;3.28;;
70814;SDS011;58428;49.478;10.986;2023-05-16T13:51:56;7.00;;;3.72;;
70814;SDS011;58428;49.478;10.986;2023-05-16T13:54:22;4.43;;;2.95;;
70814;SDS011;58428;49.478;10.986;2023-05-16T13:56:48;5.88;;;3.22;;
70814;SDS011;58428;49.478;10.986;2023-05-16T13:59:15;7.82;;;4.50;;
70814;SDS011;58428;49.478;10.986;2023-05-16T14:01:40;5.82;;;3.55;;
70814;SDS011;58428;49.478;10.986;2023-05-16T14:04:08;6.25;;;2.92;;
70814;SDS011;58428;49.478;10.986;2023-05-16T14:06:33;4.63;;;2.85;;
70814;SDS011;58428;49.478;10.986;2023-05-16T14:08:59;6.80;;;2.92;;
70814;SDS011;58428;49.478;10.986;2023-05-16T14:11:28;6.35;;;2.78;;
70814;SDS011;58428;49.478;10.986;2023-05-16T14:13:58;5.00;;;2.90;;
70814;SDS011;58428;49.478;10.986;2023-05-16T14:16:31;7.00;;;3.95;;
70814;SDS011;58428;49.478;10.986;2023-05-16T14:19:00;4.35;;;2.60;;
70814;SDS011;58428;49.478;10.986;2023-05-16T14:21:30;5.32;;;2.95;;
70814;SDS011;58428;49.478;10.986;2023-05-16T14:23:55;5.85;;;2.60;;
70814;SDS011;58428;49.478;10.986;2023-05-16T14:26:27;4.88;;;3.03;;
70814;SDS011;58428;49.478;10.986;2023-05-16T14:28:57;5.53;;;2.60;;
70814;SDS011;58428;49.478;10.986;2023-05-16T14:31:26;4.28;;;2.60;;
70814;SDS011;58428;49.478;10.986;2023-05-16T14:33:51;5.22;;;2.65;;
70814;SDS011;58428;49.478;10.986;2023-05-16T14:36:17;3.85;;;2.33;;
70814;SDS011;58428;49.478;10.986;2023-05-16T14:38:42;4.47;;;2.63;;
70814;SDS011;58428;49.478;10.986;2023-05-16T14:41:08;4.47;;;2.63;;
70814;SDS011;58428;49.478;10.986;2023-05-16T14:43:33;7.65;;;4.65;;
70814;SDS011;58428;49.478;10.986;2023-05-16T14:45:59;5.30;;;2.88;;
70814;SDS011;58428;49.478;10.986;2023-05-16T14:48:24;4.97;;;3.03;;
70814;SDS011;58428;49.478;10.986;2023-05-16T14:50:50;3.45;;;2.42;;
70814;SDS011;58428;49.478;10.986;2023-05-16T14:53:17;4.13;;;2.58;;
70814;SDS011;58428;49.478;10.986;2023-05-16T14:55:42;4.25;;;2.42;;
70814;SDS011;58428;49.478;10.986;2023-05-16T14:58:16;5.07;;;2.45;;
70814;SDS011;58428;49.478;10.986;2023-05-16T15:00:41;4.43;;;2.50;;
70814;SDS011;58428;49.478;10.986;2023-05-16T15:05:32;3.87;;;2.27;;
70814;SDS011;58428;49.478;10.986;2023-05-16T15:07:58;4.88;;;2.65;;
70814;SDS011;58428;49.478;10.986;2023-05-16T15:10:27;4.70;;;2.80;;
70814;SDS011;58428;49.478;10.986;2023-05-16T15:15:18;4.60;;;2.60;;
70814;SDS011;58428;49.478;10.986;2023-05-16T15:20:10;4.65;;;2.60;;
70814;SDS011;58428;49.478;10.986;2023-05-16T15:25:03;3.83;;;2.40;;
70814;SDS011;58428;49.478;10.986;2023-05-16T15:27:30;4.95;;;3.10;;
70814;SDS011;58428;49.478;10.986;2023-05-16T15:29:56;7.55;;;4.55;;
70814;SDS011;58428;49.478;10.986;2023-05-16T15:34:50;16.70;;;10.90;;
70814;SDS011;58428;49.478;10.986;2023-05-16T15:39:40;5.77;;;3.33;;
70814;SDS011;58428;49.478;10.986;2023-05-16T15:42:06;4.43;;;2.33;;
70814;SDS011;58428;49.478;10.986;2023-05-16T15:47:00;4.20;;;2.55;;
70814;SDS011;58428;49.478;10.986;2023-05-16T15:49:25;3.70;;;2.35;;
70814;SDS011;58428;49.478;10.986;2023-05-16T15:51:53;4.90;;;2.50;;
70814;SDS011;58428;49.478;10.986;2023-05-16T15:56:44;3.58;;;2.38;;
70814;SDS011;58428;49.478;10.986;2023-05-16T16:01:35;4.40;;;2.13;;
70814;SDS011;58428;49.478;10.986;2023-05-16T16:04:00;4.97;;;2.42;;
70814;SDS011;58428;49.478;10.986;2023-05-16T16:06:26;4.38;;;2.58;;